logo
Search for airport 
image banner adimage banner adimage banner ad
image banner ad

ESSL - Linkoping/Saab

Located in Linkoping, Sweden

ICAO - ESSL, IATA - LPI

Data provided by Airmate  

General information

Coordinates: N58°24'23" E15°40'47"
Elevation is 178 feet MSL.
Magnetic variation is +6.0° East
View others Airports in Östergötlands län

Operational data

Special qualification required
Current time UTC:
Current local time:
Weather
METAR: ESSL 140020Z AUTO 13004KT 9999 SCT002/// BKN012/// OVC020/// 08/08 Q1002
TAF: TAF ESSL 132030Z 1321/1323 23008KT CAVOK
View NOTAMs / SUP AIP / TFR affecting this airport [VIEW]
Communications frequencies: [VIEW]

Runways:

RWY identifierQFULength (ft)Width (ft)SurfaceLDA (ft)
11112°7005148ASPH7005
29292°7005148ASPH7005

Airport contact information

Address: Linkoping Sweden

Other aviation service providers

Aviation club (not for profit)

Linköpings Flygklubb

Linköpings Flygklubb
info@lfk.se+46134737803

Satellite view of ESSL